createdAt,value
2023-03-29T00:00:00.606Z,99.90
2023-03-29T00:02:33.663Z,99.90
2023-03-29T00:05:06.846Z,99.90
2023-03-29T00:07:41.312Z,99.90
2023-03-29T00:10:15.992Z,99.90
2023-03-29T00:12:48.084Z,99.90
2023-03-29T00:15:20.623Z,99.90
2023-03-29T00:17:52.649Z,99.90
2023-03-29T00:20:27.155Z,99.90
2023-03-29T00:22:58.955Z,99.90
2023-03-29T00:25:33.008Z,99.90
2023-03-29T00:28:04.927Z,99.90
2023-03-29T00:30:39.195Z,99.90
2023-03-29T00:33:11.603Z,99.90
2023-03-29T00:35:43.453Z,99.90
2023-03-29T00:38:15.727Z,99.90
2023-03-29T00:40:49.623Z,99.90
2023-03-29T00:43:21.383Z,99.90
2023-03-29T00:45:55.435Z,99.90
2023-03-29T00:48:30.110Z,99.90
2023-03-29T00:51:09.869Z,99.90
2023-03-29T00:53:45.309Z,99.90
2023-03-29T00:56:24.336Z,99.90
2023-03-29T00:59:07.555Z,99.90
2023-03-29T01:01:42.471Z,99.90
2023-03-29T01:04:19.469Z,99.90
2023-03-29T01:06:57.169Z,99.90
2023-03-29T01:09:31.132Z,99.90
2023-03-29T01:12:08.197Z,99.90
2023-03-29T01:14:52.388Z,99.90
2023-03-29T01:17:25.700Z,99.90
2023-03-29T01:20:07.994Z,99.90
2023-03-29T01:22:57.905Z,99.90
2023-03-29T01:25:35.912Z,99.90
2023-03-29T01:28:11.971Z,99.90
2023-03-29T01:31:04.190Z,99.90
2023-03-29T01:33:40.964Z,99.90
2023-03-29T01:36:19.282Z,99.90
2023-03-29T01:38:55.190Z,99.90
2023-03-29T01:41:42.443Z,99.90
2023-03-29T01:44:30.804Z,99.90
2023-03-29T01:47:11.386Z,99.90
2023-03-29T01:50:04.158Z,99.90
2023-03-29T01:52:38.701Z,99.90
2023-03-29T01:55:13.119Z,99.90
2023-03-29T01:57:46.918Z,99.90
2023-03-29T02:00:20.799Z,99.90
2023-03-29T02:02:54.199Z,99.90
2023-03-29T02:05:27.185Z,99.90
2023-03-29T02:08:00.364Z,99.90
2023-03-29T02:10:35.407Z,99.90
2023-03-29T02:13:09.864Z,99.90
2023-03-29T02:15:46.744Z,99.90
2023-03-29T02:18:19.898Z,99.90
2023-03-29T02:20:52.116Z,99.90
2023-03-29T02:23:34.122Z,99.90
2023-03-29T02:26:07.423Z,99.90
2023-03-29T02:28:39.213Z,99.90
2023-03-29T02:31:18.791Z,99.90
2023-03-29T02:33:57.200Z,99.90
2023-03-29T02:36:31.981Z,99.90
2023-03-29T02:39:08.170Z,99.90
2023-03-29T02:41:40.931Z,99.90
2023-03-29T02:44:15.148Z,99.90
2023-03-29T02:46:50.888Z,99.90
2023-03-29T02:49:22.977Z,99.90
2023-03-29T02:51:57.272Z,99.90
2023-03-29T02:54:31.976Z,99.90
2023-03-29T02:57:06.656Z,99.90
2023-03-29T02:59:44.228Z,99.90
2023-03-29T03:02:17.692Z,99.90
2023-03-29T03:04:50.143Z,99.90
2023-03-29T03:07:21.993Z,99.90
2023-03-29T03:09:53.929Z,99.90
2023-03-29T03:12:25.736Z,99.90
2023-03-29T03:14:57.635Z,99.90
2023-03-29T03:17:29.511Z,99.90
2023-03-29T03:20:01.333Z,99.90
2023-03-29T03:22:35.263Z,99.90
2023-03-29T03:25:10.180Z,99.90
2023-03-29T03:27:46.862Z,99.90
2023-03-29T03:30:19.125Z,99.90
2023-03-29T03:32:51.015Z,99.90
2023-03-29T03:35:22.885Z,99.90
2023-03-29T03:37:55.317Z,99.90
2023-03-29T03:40:28.324Z,99.90
2023-03-29T03:43:00.657Z,99.90
2023-03-29T03:45:34.953Z,99.90
2023-03-29T03:48:07.348Z,99.90
2023-03-29T03:50:41.501Z,99.90
2023-03-29T03:53:13.310Z,99.90
2023-03-29T03:55:51.577Z,99.90
2023-03-29T03:58:23.566Z,99.90
2023-03-29T04:00:57.742Z,99.90
2023-03-29T04:03:31.948Z,99.90
2023-03-29T04:06:03.940Z,99.90
2023-03-29T04:08:35.724Z,99.90
2023-03-29T04:11:10.521Z,99.90
2023-03-29T04:13:42.311Z,99.90
2023-03-29T04:16:14.100Z,99.90
2023-03-29T04:18:46.190Z,99.90
2023-03-29T04:21:20.010Z,99.90
2023-03-29T04:23:53.103Z,99.90
2023-03-29T04:26:24.890Z,99.90
2023-03-29T04:28:59.434Z,99.90
2023-03-29T04:31:32.217Z,99.90
2023-03-29T04:34:07.438Z,99.90
2023-03-29T04:36:41.852Z,99.90
2023-03-29T04:39:16.099Z,99.90
2023-03-29T04:41:50.132Z,99.90
2023-03-29T04:44:22.120Z,99.90
2023-03-29T04:46:56.248Z,99.90
2023-03-29T04:49:28.098Z,99.90
2023-03-29T04:52:02.236Z,99.90
2023-03-29T04:54:34.034Z,99.90
2023-03-29T04:57:06.801Z,99.90
2023-03-29T04:59:41.517Z,99.90
2023-03-29T05:02:13.310Z,99.90
2023-03-29T05:04:45.180Z,99.90
2023-03-29T05:07:18.187Z,99.90
2023-03-29T05:09:50.038Z,99.90
2023-03-29T05:12:22.374Z,99.90
2023-03-29T05:14:54.230Z,99.90
2023-03-29T05:17:28.497Z,99.90
2023-03-29T05:20:01.458Z,99.90
2023-03-29T05:22:33.514Z,99.90
2023-03-29T05:25:05.885Z,99.90
2023-03-29T05:27:37.712Z,99.90
2023-03-29T05:30:09.843Z,99.90
2023-03-29T05:32:42.333Z,99.90
2023-03-29T05:35:14.137Z,99.90
2023-03-29T05:37:47.402Z,99.90
2023-03-29T05:40:19.273Z,99.90
2023-03-29T05:42:51.159Z,99.90
2023-03-29T05:45:25.209Z,99.90
2023-03-29T05:47:57.688Z,99.90
2023-03-29T05:50:30.300Z,99.90
2023-03-29T05:53:02.099Z,99.90
2023-03-29T05:55:33.974Z,99.90
2023-03-29T05:58:07.958Z,99.90
2023-03-29T06:00:43.001Z,99.90
2023-03-29T06:03:21.329Z,99.90
2023-03-29T06:06:00.668Z,99.90
2023-03-29T06:08:33.498Z,99.90
2023-03-29T06:11:08.962Z,99.90
2023-03-29T06:13:42.239Z,99.90
2023-03-29T06:16:14.107Z,99.90
2023-03-29T06:18:46.489Z,99.90
2023-03-29T06:21:18.271Z,99.90
2023-03-29T06:23:50.495Z,99.90
2023-03-29T06:26:22.594Z,99.90
2023-03-29T06:28:57.465Z,99.90
2023-03-29T06:31:31.685Z,99.90
2023-03-29T06:34:06.034Z,99.90
2023-03-29T06:36:37.941Z,99.90
2023-03-29T06:39:09.951Z,99.90
2023-03-29T06:41:41.751Z,99.90
2023-03-29T06:44:17.424Z,99.90
2023-03-29T06:46:49.312Z,99.90
2023-03-29T06:49:21.739Z,99.90
2023-03-29T06:51:53.979Z,99.90
2023-03-29T06:54:26.120Z,71.80
2023-03-29T06:56:59.053Z,91.70
2023-03-29T06:59:30.887Z,72.80
2023-03-29T07:02:04.801Z,83.90
2023-03-29T07:04:39.550Z,72.30
2023-03-29T07:07:20.130Z,76.00
2023-03-29T07:09:55.413Z,69.00
2023-03-29T07:12:27.304Z,61.60
2023-03-29T07:14:59.192Z,58.70
2023-03-29T07:17:31.017Z,57.30
2023-03-29T07:20:03.249Z,58.00
2023-03-29T07:22:35.021Z,56.40
2023-03-29T07:25:09.350Z,59.80
2023-03-29T07:27:43.868Z,75.70
2023-03-29T07:30:17.885Z,76.80
2023-03-29T07:32:51.080Z,72.40
2023-03-29T07:35:23.410Z,71.20
2023-03-29T07:37:56.079Z,67.30
2023-03-29T07:40:28.225Z,65.00
2023-03-29T07:42:59.978Z,61.10
2023-03-29T07:45:32.006Z,62.60
2023-03-29T07:48:04.041Z,64.90
2023-03-29T07:50:35.866Z,67.90
2023-03-29T07:53:12.639Z,67.00
2023-03-29T07:55:47.697Z,67.40
2023-03-29T07:58:22.193Z,68.70
2023-03-29T08:00:53.960Z,70.80
2023-03-29T08:03:28.878Z,68.70
2023-03-29T08:06:03.694Z,70.20
2023-03-29T08:08:38.544Z,67.00
2023-03-29T08:11:10.367Z,68.80
2023-03-29T08:13:42.583Z,71.00
2023-03-29T08:16:14.807Z,74.10
2023-03-29T08:18:46.664Z,77.60
2023-03-29T08:21:18.446Z,81.10
2023-03-29T08:23:50.270Z,82.30
2023-03-29T08:26:22.265Z,83.10
2023-03-29T08:28:54.111Z,79.20
2023-03-29T08:31:28.277Z,81.10
2023-03-29T08:34:00.150Z,83.40
2023-03-29T08:36:31.991Z,82.70
2023-03-29T08:39:03.890Z,79.00
2023-03-29T08:41:50.713Z,79.20
2023-03-29T08:44:42.945Z,79.10
2023-03-29T08:47:14.703Z,73.50
2023-03-29T08:49:48.783Z,76.60
2023-03-29T08:52:24.022Z,76.40
2023-03-29T08:54:57.435Z,77.60
2023-03-29T08:57:31.196Z,79.50
2023-03-29T09:00:05.606Z,77.60
2023-03-29T09:02:37.597Z,77.10
2023-03-29T09:05:18.728Z,77.60
2023-03-29T09:07:50.486Z,70.20
2023-03-29T09:10:28.348Z,71.30
2023-03-29T09:13:03.457Z,73.40
2023-03-29T09:15:54.157Z,73.70
2023-03-29T09:18:31.735Z,75.90
2023-03-29T09:21:13.316Z,71.80
2023-03-29T09:24:03.652Z,73.10
2023-03-29T09:26:42.027Z,76.40
2023-03-29T09:29:16.790Z,77.20
2023-03-29T09:31:50.845Z,75.70
2023-03-29T09:34:37.854Z,77.80
2023-03-29T09:37:24.725Z,78.50
2023-03-29T09:39:57.636Z,78.50
2023-03-29T09:42:30.318Z,82.20
2023-03-29T09:45:08.523Z,85.00
2023-03-29T09:47:58.136Z,85.80
2023-03-29T09:50:34.092Z,87.60
2023-03-29T09:53:05.980Z,87.30
2023-03-29T09:55:40.953Z,87.00
2023-03-29T09:58:12.928Z,86.80
2023-03-29T10:00:45.203Z,90.20
2023-03-29T10:03:24.434Z,90.60
2023-03-29T10:06:00.300Z,90.80
2023-03-29T10:08:44.200Z,91.80
2023-03-29T10:11:27.110Z,91.50
2023-03-29T10:14:01.885Z,92.30
2023-03-29T10:16:36.261Z,90.80
2023-03-29T10:19:23.449Z,90.70
2023-03-29T10:21:58.405Z,91.20
2023-03-29T10:24:30.403Z,92.20
2023-03-29T10:27:03.667Z,91.80
2023-03-29T10:29:47.219Z,91.80
2023-03-29T10:32:22.867Z,92.60
2023-03-29T10:34:57.572Z,92.60
2023-03-29T10:37:29.377Z,92.80
2023-03-29T10:40:01.621Z,92.20
2023-03-29T10:42:33.606Z,91.90
2023-03-29T10:45:19.153Z,91.60
2023-03-29T10:47:50.921Z,91.20
2023-03-29T10:50:23.013Z,91.10
2023-03-29T10:52:54.880Z,91.30
2023-03-29T10:55:44.520Z,91.40
2023-03-29T10:58:18.499Z,92.00
2023-03-29T11:00:57.087Z,93.10
2023-03-29T11:03:38.931Z,92.30
2023-03-29T11:06:18.723Z,92.70
2023-03-29T11:08:50.728Z,92.40
2023-03-29T11:11:31.417Z,92.60
2023-03-29T11:14:10.125Z,92.00
2023-03-29T11:17:00.999Z,92.40
2023-03-29T11:19:33.390Z,92.80
2023-03-29T11:22:05.218Z,93.60
2023-03-29T11:24:47.021Z,93.50
2023-03-29T11:27:18.785Z,94.60
2023-03-29T11:30:02.395Z,94.70
2023-03-29T11:32:40.269Z,94.80
2023-03-29T11:35:24.191Z,94.60
2023-03-29T11:38:07.083Z,94.30
2023-03-29T11:40:58.997Z,94.10
2023-03-29T11:43:33.678Z,94.00
2023-03-29T11:46:11.261Z,94.70
2023-03-29T11:49:01.708Z,95.10
2023-03-29T11:51:41.420Z,95.10
2023-03-29T11:54:16.632Z,95.90
2023-03-29T11:56:52.593Z,94.60
2023-03-29T11:59:32.868Z,94.60
2023-03-29T12:02:04.635Z,94.10
2023-03-29T12:04:42.609Z,94.20
2023-03-29T12:07:17.491Z,93.90
2023-03-29T12:09:52.741Z,94.80
2023-03-29T12:12:37.178Z,95.20
2023-03-29T12:15:14.866Z,95.20
2023-03-29T12:18:02.702Z,95.20
2023-03-29T12:20:39.669Z,95.30
2023-03-29T12:23:14.457Z,95.90
2023-03-29T12:25:52.634Z,95.90
2023-03-29T12:28:42.131Z,95.80
2023-03-29T12:31:13.881Z,96.30
2023-03-29T12:33:57.650Z,96.90
2023-03-29T12:36:29.392Z,96.20
2023-03-29T12:39:03.836Z,95.60
2023-03-29T12:41:37.169Z,95.90
2023-03-29T12:44:15.821Z,95.30
2023-03-29T12:46:51.465Z,95.70
2023-03-29T12:49:34.325Z,96.00
2023-03-29T12:52:14.790Z,94.00
2023-03-29T12:54:52.976Z,94.30
2023-03-29T12:57:28.161Z,95.40
2023-03-29T13:00:10.641Z,96.30
2023-03-29T13:02:45.829Z,96.90
2023-03-29T13:05:28.558Z,95.70
2023-03-29T13:08:11.448Z,96.40
2023-03-29T13:10:51.859Z,96.20
2023-03-29T13:13:30.924Z,96.90
2023-03-29T13:16:14.009Z,96.40
2023-03-29T13:19:09.002Z,97.10
2023-03-29T13:21:46.817Z,97.50
2023-03-29T13:24:33.573Z,97.30
2023-03-29T13:27:17.985Z,97.70
2023-03-29T13:30:12.989Z,97.70
2023-03-29T13:32:55.473Z,99.00
2023-03-29T13:35:30.365Z,99.50
2023-03-29T13:38:08.010Z,99.10
2023-03-29T13:40:39.747Z,99.00
2023-03-29T13:43:19.236Z,99.40
2023-03-29T13:45:57.209Z,99.10
2023-03-29T13:48:30.760Z,98.80
2023-03-29T13:51:08.317Z,99.50
2023-03-29T13:53:44.227Z,99.50
2023-03-29T13:56:18.692Z,99.80
2023-03-29T13:58:55.934Z,99.00
2023-03-29T14:01:48.015Z,99.90
2023-03-29T14:04:27.714Z,99.30
2023-03-29T14:07:00.527Z,99.70
2023-03-29T14:09:33.390Z,99.80
2023-03-29T14:12:05.262Z,99.90
2023-03-29T14:14:42.627Z,99.90
2023-03-29T14:17:26.697Z,99.90
2023-03-29T14:19:59.600Z,99.90
2023-03-29T14:22:33.418Z,99.90
2023-03-29T14:25:09.690Z,99.90
2023-03-29T14:27:41.791Z,99.90
2023-03-29T14:30:17.926Z,99.90
2023-03-29T14:32:51.244Z,99.90
2023-03-29T14:35:28.338Z,99.90
2023-03-29T14:38:00.424Z,99.90
2023-03-29T14:40:32.881Z,99.90
2023-03-29T14:43:06.792Z,99.90
2023-03-29T14:45:40.917Z,99.90
2023-03-29T14:48:16.842Z,99.90
2023-03-29T14:50:48.845Z,99.90
2023-03-29T14:53:22.011Z,99.90
2023-03-29T14:55:54.138Z,99.90
2023-03-29T14:58:31.046Z,99.90
2023-03-29T15:01:19.885Z,99.90
2023-03-29T15:03:57.265Z,99.90
2023-03-29T15:06:32.825Z,99.90
2023-03-29T15:09:07.235Z,99.90
2023-03-29T15:11:39.882Z,99.90
2023-03-29T15:14:16.757Z,99.90
2023-03-29T15:16:50.075Z,99.90
2023-03-29T15:19:22.397Z,99.90
2023-03-29T15:21:54.332Z,99.90
2023-03-29T15:24:29.104Z,99.90
2023-03-29T15:27:11.202Z,99.90
2023-03-29T15:29:43.899Z,99.90
2023-03-29T15:32:22.954Z,99.90
2023-03-29T15:34:58.909Z,99.90
2023-03-29T15:37:31.017Z,99.90
2023-03-29T15:40:09.717Z,99.90
2023-03-29T15:42:41.610Z,99.90
2023-03-29T15:45:17.753Z,99.90
2023-03-29T15:47:49.904Z,99.90
2023-03-29T15:50:22.120Z,99.90
2023-03-29T15:53:08.661Z,99.90
2023-03-29T15:55:46.012Z,99.90
2023-03-29T15:58:22.505Z,99.90
2023-03-29T16:01:02.636Z,99.90
2023-03-29T16:03:36.224Z,99.90
2023-03-29T16:06:10.734Z,99.90
2023-03-29T16:08:45.036Z,99.90
2023-03-29T16:11:16.926Z,99.90
2023-03-29T16:13:48.786Z,99.90
2023-03-29T16:16:21.249Z,99.90
2023-03-29T16:18:55.501Z,99.90
2023-03-29T16:21:27.288Z,99.90
2023-03-29T16:23:59.122Z,99.90
2023-03-29T16:26:33.485Z,99.90
2023-03-29T16:29:05.311Z,99.90
2023-03-29T16:31:37.107Z,99.90
2023-03-29T16:34:10.188Z,99.90
2023-03-29T16:36:43.622Z,99.90
2023-03-29T16:39:18.334Z,99.90
2023-03-29T16:41:50.494Z,99.90
2023-03-29T16:44:23.597Z,99.90
2023-03-29T16:46:58.146Z,99.90
2023-03-29T16:49:32.034Z,99.90
2023-03-29T16:52:04.591Z,99.90
2023-03-29T16:54:39.058Z,99.90
2023-03-29T16:57:10.868Z,99.90
2023-03-29T16:59:45.178Z,99.90
2023-03-29T17:02:16.937Z,99.90
2023-03-29T17:04:51.178Z,99.90
2023-03-29T17:07:23.038Z,74.50
2023-03-29T17:09:55.001Z,60.70
2023-03-29T17:12:26.792Z,60.50
2023-03-29T17:14:58.571Z,62.30
2023-03-29T17:17:30.360Z,57.40
2023-03-29T17:20:02.261Z,65.70
2023-03-29T17:22:34.740Z,55.90
2023-03-29T17:25:07.681Z,57.10
2023-03-29T17:27:39.445Z,52.70
2023-03-29T17:30:11.591Z,51.60
2023-03-29T17:32:43.593Z,50.30
2023-03-29T17:35:18.521Z,52.50
2023-03-29T17:37:51.272Z,11.80
2023-03-29T17:40:23.819Z,8.80
2023-03-29T17:42:55.736Z,3.40
2023-03-29T17:45:27.557Z,2.00
2023-03-29T17:47:59.402Z,3.10
2023-03-29T17:50:31.305Z,1.00
2023-03-29T17:53:03.574Z,1.10
2023-03-29T17:55:35.438Z,1.00
2023-03-29T17:58:07.286Z,1.00
2023-03-29T18:00:39.458Z,21.30
2023-03-29T18:03:16.091Z,21.30
2023-03-29T18:05:50.476Z,1.00
2023-03-29T18:08:22.245Z,1.00
2023-03-29T18:11:04.114Z,1.00
2023-03-29T18:13:35.943Z,1.00
2023-03-29T18:16:11.242Z,1.00
2023-03-29T18:18:43.779Z,1.00
2023-03-29T18:21:18.921Z,1.00
2023-03-29T18:23:52.888Z,1.00
2023-03-29T18:26:26.260Z,1.00
2023-03-29T18:29:00.785Z,1.00
2023-03-29T18:31:32.785Z,1.00
2023-03-29T18:34:07.134Z,1.00
2023-03-29T18:36:39.350Z,1.00
2023-03-29T18:39:15.559Z,1.00
2023-03-29T18:41:47.425Z,1.00
2023-03-29T18:44:19.348Z,1.00
2023-03-29T18:46:56.405Z,1.00
2023-03-29T18:49:28.226Z,1.00
2023-03-29T18:52:00.541Z,1.00
2023-03-29T18:54:34.684Z,1.00
2023-03-29T18:57:08.846Z,1.00
2023-03-29T18:59:40.915Z,1.00
2023-03-29T19:02:13.033Z,1.00
2023-03-29T19:04:47.237Z,1.00
2023-03-29T19:07:20.677Z,1.00
2023-03-29T19:09:53.377Z,1.00
2023-03-29T19:12:25.184Z,1.00
2023-03-29T19:14:57.001Z,1.00
2023-03-29T19:17:29.107Z,1.00
2023-03-29T19:20:01.085Z,1.00
2023-03-29T19:22:34.289Z,1.00
2023-03-29T19:25:06.417Z,1.00
2023-03-29T19:27:39.887Z,1.00
2023-03-29T19:30:14.778Z,1.00
2023-03-29T19:32:48.486Z,1.00
2023-03-29T19:35:22.489Z,1.00
2023-03-29T19:37:59.651Z,1.00
2023-03-29T19:40:34.176Z,1.00
2023-03-29T19:43:07.650Z,1.00
2023-03-29T19:45:39.485Z,1.00
2023-03-29T19:48:21.162Z,1.00
2023-03-29T19:50:54.472Z,1.00
2023-03-29T19:53:27.467Z,1.00
2023-03-29T19:55:59.764Z,1.00
2023-03-29T19:58:33.163Z,1.00
2023-03-29T20:01:07.465Z,1.00
2023-03-29T20:03:43.523Z,1.00
2023-03-29T20:06:16.715Z,1.00
2023-03-29T20:08:48.575Z,1.00
2023-03-29T20:11:24.145Z,1.00
2023-03-29T20:13:56.000Z,1.00
2023-03-29T20:16:29.859Z,1.00
2023-03-29T20:19:02.657Z,1.00
2023-03-29T20:21:37.283Z,1.00
2023-03-29T20:24:12.121Z,1.00
2023-03-29T20:26:44.880Z,1.00
2023-03-29T20:29:17.828Z,1.00
2023-03-29T20:31:52.035Z,1.00
2023-03-29T20:34:23.860Z,1.00
2023-03-29T20:37:01.065Z,1.00
2023-03-29T20:39:33.901Z,1.00
2023-03-29T20:42:06.537Z,1.00
2023-03-29T20:44:39.282Z,1.00
2023-03-29T20:47:21.556Z,1.00
2023-03-29T20:49:55.057Z,1.00
2023-03-29T20:52:30.909Z,1.00
2023-03-29T20:55:03.576Z,1.00
2023-03-29T20:57:40.640Z,1.00
2023-03-29T21:00:12.939Z,1.00
2023-03-29T21:02:45.307Z,1.00
2023-03-29T21:05:17.502Z,1.00
2023-03-29T21:07:49.348Z,1.00
2023-03-29T21:10:21.953Z,1.00
2023-03-29T21:13:03.356Z,1.00
2023-03-29T21:15:35.314Z,1.00
2023-03-29T21:18:07.153Z,1.00
2023-03-29T21:20:38.935Z,1.00
2023-03-29T21:23:10.766Z,1.00
2023-03-29T21:25:44.020Z,1.00
2023-03-29T21:28:16.599Z,1.00
2023-03-29T21:30:48.417Z,1.00
2023-03-29T21:33:20.461Z,1.00
2023-03-29T21:35:52.424Z,1.00
2023-03-29T21:38:24.294Z,1.00
2023-03-29T21:40:56.167Z,1.00
2023-03-29T21:43:30.358Z,1.00
2023-03-29T21:46:02.140Z,1.00
2023-03-29T21:48:34.038Z,1.00
2023-03-29T21:51:06.514Z,1.00
2023-03-29T21:53:38.472Z,1.00
2023-03-29T21:56:12.401Z,1.00
2023-03-29T21:58:44.155Z,1.00
2023-03-29T22:01:16.359Z,1.00
2023-03-29T22:03:48.422Z,1.00
2023-03-29T22:06:20.871Z,1.00
2023-03-29T22:08:53.165Z,1.00
2023-03-29T22:11:25.728Z,1.00
2023-03-29T22:13:57.503Z,1.00
2023-03-29T22:16:31.341Z,1.00
2023-03-29T22:19:04.077Z,1.00
2023-03-29T22:21:37.683Z,1.00
2023-03-29T22:24:09.446Z,1.00
2023-03-29T22:26:46.422Z,1.00
2023-03-29T22:29:18.183Z,1.00
2023-03-29T22:31:50.072Z,1.00
2023-03-29T22:34:21.996Z,1.00
2023-03-29T22:36:53.800Z,1.00
2023-03-29T22:39:25.586Z,1.00
2023-03-29T22:41:59.840Z,1.00
2023-03-29T22:44:31.937Z,1.00
2023-03-29T22:47:03.928Z,1.00
2023-03-29T22:49:35.909Z,1.00
2023-03-29T22:52:07.761Z,1.00
2023-03-29T22:54:39.547Z,1.00
2023-03-29T22:57:11.760Z,1.00
2023-03-29T22:59:43.558Z,1.00
2023-03-29T23:02:15.667Z,1.00
2023-03-29T23:04:47.692Z,1.00
2023-03-29T23:07:25.095Z,1.00
2023-03-29T23:09:56.868Z,1.00
2023-03-29T23:12:28.672Z,1.00
2023-03-29T23:15:00.636Z,1.00
2023-03-29T23:17:35.110Z,1.00
2023-03-29T23:20:07.322Z,1.00
2023-03-29T23:22:39.862Z,1.00
2023-03-29T23:25:12.028Z,1.00
2023-03-29T23:27:44.136Z,2.80
2023-03-29T23:30:19.779Z,10.40
2023-03-29T23:32:52.596Z,10.40
2023-03-29T23:35:24.517Z,13.60
2023-03-29T23:37:56.415Z,18.20
2023-03-29T23:40:30.533Z,24.20
2023-03-29T23:43:04.227Z,27.10
2023-03-29T23:45:36.393Z,31.20
2023-03-29T23:48:08.820Z,36.50
2023-03-29T23:50:40.626Z,40.10
2023-03-29T23:53:12.433Z,45.00
2023-03-29T23:55:44.655Z,48.90
2023-03-29T23:58:19.182Z,54.30
